sensor_id;sensor_type;location;lat;lon;timestamp;P1;durP1;ratioP1;P2;durP2;ratioP2
30896;SDS011;64229;52.246;21.054;2023-03-29T00:00:20;10.45;;;4.07;;
30896;SDS011;64229;52.246;21.054;2023-03-29T00:02:46;11.23;;;3.90;;
30896;SDS011;64229;52.246;21.054;2023-03-29T00:05:13;10.48;;;3.95;;
30896;SDS011;64229;52.246;21.054;2023-03-29T00:07:40;14.00;;;5.97;;
30896;SDS011;64229;52.246;21.054;2023-03-29T00:10:06;21.70;;;7.35;;
30896;SDS011;64229;52.246;21.054;2023-03-29T00:12:34;22.42;;;10.18;;
30896;SDS011;64229;52.246;21.054;2023-03-29T00:15:00;28.48;;;12.75;;
30896;SDS011;64229;52.246;21.054;2023-03-29T00:17:26;21.65;;;10.70;;
30896;SDS011;64229;52.246;21.054;2023-03-29T00:19:52;30.42;;;11.25;;
30896;SDS011;64229;52.246;21.054;2023-03-29T00:22:17;35.75;;;12.45;;
30896;SDS011;64229;52.246;21.054;2023-03-29T00:24:43;36.10;;;13.02;;
30896;SDS011;64229;52.246;21.054;2023-03-29T00:27:11;48.58;;;13.95;;
30896;SDS011;64229;52.246;21.054;2023-03-29T00:29:37;37.90;;;10.77;;
30896;SDS011;64229;52.246;21.054;2023-03-29T00:32:02;32.63;;;9.38;;
30896;SDS011;64229;52.246;21.054;2023-03-29T00:34:28;20.92;;;6.03;;
30896;SDS011;64229;52.246;21.054;2023-03-29T00:36:57;21.52;;;5.35;;
30896;SDS011;64229;52.246;21.054;2023-03-29T00:39:23;18.58;;;5.80;;
30896;SDS011;64229;52.246;21.054;2023-03-29T00:41:50;12.73;;;4.18;;
30896;SDS011;64229;52.246;21.054;2023-03-29T00:50:03;10.90;;;3.35;;
30896;SDS011;64229;52.246;21.054;2023-03-29T00:52:41;9.77;;;3.42;;
30896;SDS011;64229;52.246;21.054;2023-03-29T00:55:21;8.77;;;3.33;;
30896;SDS011;64229;52.246;21.054;2023-03-29T00:57:48;16.13;;;3.58;;
30896;SDS011;64229;52.246;21.054;2023-03-29T01:00:18;10.77;;;3.45;;
30896;SDS011;64229;52.246;21.054;2023-03-29T01:02:46;10.65;;;3.80;;
30896;SDS011;64229;52.246;21.054;2023-03-29T01:05:22;11.20;;;3.53;;
30896;SDS011;64229;52.246;21.054;2023-03-29T01:07:58;7.50;;;2.92;;
30896;SDS011;64229;52.246;21.054;2023-03-29T01:12:57;8.10;;;3.25;;
30896;SDS011;64229;52.246;21.054;2023-03-29T01:15:28;6.22;;;3.30;;
30896;SDS011;64229;52.246;21.054;2023-03-29T01:17:54;9.10;;;3.42;;
30896;SDS011;64229;52.246;21.054;2023-03-29T01:23:14;9.93;;;3.58;;
30896;SDS011;64229;52.246;21.054;2023-03-29T01:26:19;7.35;;;3.25;;
30896;SDS011;64229;52.246;21.054;2023-03-29T01:28:49;14.50;;;3.85;;
30896;SDS011;64229;52.246;21.054;2023-03-29T01:31:40;16.30;;;4.55;;
30896;SDS011;64229;52.246;21.054;2023-03-29T01:34:11;7.38;;;3.08;;
30896;SDS011;64229;52.246;21.054;2023-03-29T01:36:46;10.52;;;3.95;;
30896;SDS011;64229;52.246;21.054;2023-03-29T01:39:15;14.02;;;3.50;;
30896;SDS011;64229;52.246;21.054;2023-03-29T01:44:33;10.48;;;3.42;;
30896;SDS011;64229;52.246;21.054;2023-03-29T01:47:16;12.40;;;4.10;;
30896;SDS011;64229;52.246;21.054;2023-03-29T01:49:52;9.40;;;3.15;;
30896;SDS011;64229;52.246;21.054;2023-03-29T01:52:32;9.98;;;3.90;;
30896;SDS011;64229;52.246;21.054;2023-03-29T01:55:09;8.27;;;3.20;;
30896;SDS011;64229;52.246;21.054;2023-03-29T01:57:41;13.13;;;3.53;;
30896;SDS011;64229;52.246;21.054;2023-03-29T02:00:14;8.57;;;3.60;;
30896;SDS011;64229;52.246;21.054;2023-03-29T02:02:41;11.18;;;3.80;;
30896;SDS011;64229;52.246;21.054;2023-03-29T02:05:10;11.80;;;3.85;;
30896;SDS011;64229;52.246;21.054;2023-03-29T02:07:38;9.40;;;3.58;;
30896;SDS011;64229;52.246;21.054;2023-03-29T02:10:07;11.23;;;3.70;;
30896;SDS011;64229;52.246;21.054;2023-03-29T02:12:35;9.23;;;4.30;;
30896;SDS011;64229;52.246;21.054;2023-03-29T02:15:02;11.32;;;4.20;;
30896;SDS011;64229;52.246;21.054;2023-03-29T02:17:35;10.68;;;3.53;;
30896;SDS011;64229;52.246;21.054;2023-03-29T02:20:05;16.23;;;5.03;;
30896;SDS011;64229;52.246;21.054;2023-03-29T02:22:47;10.18;;;3.92;;
30896;SDS011;64229;52.246;21.054;2023-03-29T02:25:19;10.10;;;3.85;;
30896;SDS011;64229;52.246;21.054;2023-03-29T02:27:46;9.00;;;4.30;;
30896;SDS011;64229;52.246;21.054;2023-03-29T02:30:12;12.98;;;4.68;;
30896;SDS011;64229;52.246;21.054;2023-03-29T02:32:48;12.10;;;3.55;;
30896;SDS011;64229;52.246;21.054;2023-03-29T02:35:40;15.00;;;3.40;;
30896;SDS011;64229;52.246;21.054;2023-03-29T02:38:12;8.68;;;3.50;;
30896;SDS011;64229;52.246;21.054;2023-03-29T02:40:38;11.43;;;3.78;;
30896;SDS011;64229;52.246;21.054;2023-03-29T02:43:06;12.02;;;4.07;;
30896;SDS011;64229;52.246;21.054;2023-03-29T02:45:33;11.77;;;4.40;;
30896;SDS011;64229;52.246;21.054;2023-03-29T02:48:02;11.88;;;4.07;;
30896;SDS011;64229;52.246;21.054;2023-03-29T02:50:33;10.20;;;3.60;;
30896;SDS011;64229;52.246;21.054;2023-03-29T02:53:02;14.80;;;3.65;;
30896;SDS011;64229;52.246;21.054;2023-03-29T02:55:33;17.27;;;4.00;;
30896;SDS011;64229;52.246;21.054;2023-03-29T02:57:59;14.27;;;4.18;;
30896;SDS011;64229;52.246;21.054;2023-03-29T03:00:33;10.18;;;4.07;;
30896;SDS011;64229;52.246;21.054;2023-03-29T03:03:01;11.73;;;3.60;;
30896;SDS011;64229;52.246;21.054;2023-03-29T03:05:27;11.07;;;3.33;;
30896;SDS011;64229;52.246;21.054;2023-03-29T03:07:52;16.83;;;4.40;;
30896;SDS011;64229;52.246;21.054;2023-03-29T03:10:18;12.80;;;3.20;;
30896;SDS011;64229;52.246;21.054;2023-03-29T03:12:43;10.38;;;3.88;;
30896;SDS011;64229;52.246;21.054;2023-03-29T03:15:08;13.55;;;4.20;;
30896;SDS011;64229;52.246;21.054;2023-03-29T03:17:34;9.50;;;4.18;;
30896;SDS011;64229;52.246;21.054;2023-03-29T03:20:05;12.90;;;3.63;;
30896;SDS011;64229;52.246;21.054;2023-03-29T03:22:34;11.52;;;3.70;;
30896;SDS011;64229;52.246;21.054;2023-03-29T03:25:00;13.63;;;4.40;;
30896;SDS011;64229;52.246;21.054;2023-03-29T03:27:25;9.85;;;4.03;;
30896;SDS011;64229;52.246;21.054;2023-03-29T03:29:51;9.43;;;3.58;;
30896;SDS011;64229;52.246;21.054;2023-03-29T03:32:16;12.70;;;4.07;;
30896;SDS011;64229;52.246;21.054;2023-03-29T03:34:42;13.77;;;4.07;;
30896;SDS011;64229;52.246;21.054;2023-03-29T03:37:07;12.15;;;4.10;;
30896;SDS011;64229;52.246;21.054;2023-03-29T03:39:34;11.82;;;4.13;;
30896;SDS011;64229;52.246;21.054;2023-03-29T03:42:00;10.32;;;3.92;;
30896;SDS011;64229;52.246;21.054;2023-03-29T03:44:26;14.00;;;4.10;;
30896;SDS011;64229;52.246;21.054;2023-03-29T03:46:51;13.48;;;3.55;;
30896;SDS011;64229;52.246;21.054;2023-03-29T03:49:16;16.92;;;4.43;;
30896;SDS011;64229;52.246;21.054;2023-03-29T03:51:43;13.82;;;4.35;;
30896;SDS011;64229;52.246;21.054;2023-03-29T03:54:09;12.43;;;4.20;;
30896;SDS011;64229;52.246;21.054;2023-03-29T03:56:35;14.43;;;4.13;;
30896;SDS011;64229;52.246;21.054;2023-03-29T03:59:01;17.10;;;4.22;;
30896;SDS011;64229;52.246;21.054;2023-03-29T04:01:27;11.57;;;4.80;;
30896;SDS011;64229;52.246;21.054;2023-03-29T04:03:52;13.10;;;4.40;;
30896;SDS011;64229;52.246;21.054;2023-03-29T04:06:17;12.98;;;5.15;;
30896;SDS011;64229;52.246;21.054;2023-03-29T04:08:43;19.10;;;4.20;;
30896;SDS011;64229;52.246;21.054;2023-03-29T04:11:09;9.48;;;3.90;;
30896;SDS011;64229;52.246;21.054;2023-03-29T04:13:34;14.95;;;4.93;;
30896;SDS011;64229;52.246;21.054;2023-03-29T04:16:01;12.98;;;4.10;;
30896;SDS011;64229;52.246;21.054;2023-03-29T04:18:27;15.52;;;4.13;;
30896;SDS011;64229;52.246;21.054;2023-03-29T04:20:52;9.25;;;3.83;;
30896;SDS011;64229;52.246;21.054;2023-03-29T04:23:18;19.60;;;5.55;;
30896;SDS011;64229;52.246;21.054;2023-03-29T04:25:43;13.13;;;4.15;;
30896;SDS011;64229;52.246;21.054;2023-03-29T04:28:09;13.95;;;5.35;;
30896;SDS011;64229;52.246;21.054;2023-03-29T04:30:35;14.25;;;4.45;;
30896;SDS011;64229;52.246;21.054;2023-03-29T04:33:01;9.45;;;3.90;;
30896;SDS011;64229;52.246;21.054;2023-03-29T04:35:26;13.45;;;4.70;;
30896;SDS011;64229;52.246;21.054;2023-03-29T04:37:52;12.10;;;5.05;;
30896;SDS011;64229;52.246;21.054;2023-03-29T04:40:18;10.13;;;4.20;;
30896;SDS011;64229;52.246;21.054;2023-03-29T04:42:44;12.40;;;4.93;;
30896;SDS011;64229;52.246;21.054;2023-03-29T04:45:11;12.45;;;4.72;;
30896;SDS011;64229;52.246;21.054;2023-03-29T04:47:38;12.30;;;5.13;;
30896;SDS011;64229;52.246;21.054;2023-03-29T04:50:04;10.43;;;3.95;;
30896;SDS011;64229;52.246;21.054;2023-03-29T04:52:31;16.10;;;4.47;;
30896;SDS011;64229;52.246;21.054;2023-03-29T04:54:57;13.10;;;4.97;;
30896;SDS011;64229;52.246;21.054;2023-03-29T04:57:23;11.55;;;4.20;;
30896;SDS011;64229;52.246;21.054;2023-03-29T04:59:48;17.13;;;4.60;;
30896;SDS011;64229;52.246;21.054;2023-03-29T05:02:14;14.13;;;5.22;;
30896;SDS011;64229;52.246;21.054;2023-03-29T05:04:39;13.65;;;4.88;;
30896;SDS011;64229;52.246;21.054;2023-03-29T05:07:05;12.00;;;5.05;;
30896;SDS011;64229;52.246;21.054;2023-03-29T05:09:30;12.00;;;5.60;;
30896;SDS011;64229;52.246;21.054;2023-03-29T05:11:56;14.13;;;5.22;;
30896;SDS011;64229;52.246;21.054;2023-03-29T05:14:21;15.25;;;4.60;;
30896;SDS011;64229;52.246;21.054;2023-03-29T05:16:47;11.02;;;4.30;;
30896;SDS011;64229;52.246;21.054;2023-03-29T05:19:13;15.20;;;5.32;;
30896;SDS011;64229;52.246;21.054;2023-03-29T05:21:38;10.90;;;4.65;;
30896;SDS011;64229;52.246;21.054;2023-03-29T05:24:04;11.23;;;4.90;;
30896;SDS011;64229;52.246;21.054;2023-03-29T05:26:30;14.85;;;4.95;;
30896;SDS011;64229;52.246;21.054;2023-03-29T05:28:55;16.10;;;4.95;;
30896;SDS011;64229;52.246;21.054;2023-03-29T05:31:21;10.80;;;4.45;;
30896;SDS011;64229;52.246;21.054;2023-03-29T05:33:47;9.85;;;4.18;;
30896;SDS011;64229;52.246;21.054;2023-03-29T05:36:14;17.75;;;4.82;;
30896;SDS011;64229;52.246;21.054;2023-03-29T05:38:41;13.50;;;5.05;;
30896;SDS011;64229;52.246;21.054;2023-03-29T05:41:09;13.15;;;4.95;;
30896;SDS011;64229;52.246;21.054;2023-03-29T05:43:35;13.88;;;4.82;;
30896;SDS011;64229;52.246;21.054;2023-03-29T05:46:01;13.57;;;4.80;;
30896;SDS011;64229;52.246;21.054;2023-03-29T05:48:27;11.75;;;4.55;;
30896;SDS011;64229;52.246;21.054;2023-03-29T05:50:53;8.10;;;3.75;;
30896;SDS011;64229;52.246;21.054;2023-03-29T05:53:20;15.02;;;4.22;;
30896;SDS011;64229;52.246;21.054;2023-03-29T05:55:48;10.02;;;4.10;;
30896;SDS011;64229;52.246;21.054;2023-03-29T05:58:13;13.20;;;4.28;;
30896;SDS011;64229;52.246;21.054;2023-03-29T06:00:39;23.30;;;5.03;;
30896;SDS011;64229;52.246;21.054;2023-03-29T06:03:06;10.80;;;4.25;;
30896;SDS011;64229;52.246;21.054;2023-03-29T06:05:33;22.13;;;4.60;;
30896;SDS011;64229;52.246;21.054;2023-03-29T06:07:59;12.70;;;4.18;;
30896;SDS011;64229;52.246;21.054;2023-03-29T06:10:25;10.68;;;4.40;;
30896;SDS011;64229;52.246;21.054;2023-03-29T06:12:51;10.45;;;4.05;;
30896;SDS011;64229;52.246;21.054;2023-03-29T06:15:17;14.35;;;4.28;;
30896;SDS011;64229;52.246;21.054;2023-03-29T06:17:43;10.43;;;3.88;;
30896;SDS011;64229;52.246;21.054;2023-03-29T06:20:10;11.45;;;3.47;;
30896;SDS011;64229;52.246;21.054;2023-03-29T06:22:36;15.27;;;3.90;;
30896;SDS011;64229;52.246;21.054;2023-03-29T06:25:06;12.80;;;4.28;;
30896;SDS011;64229;52.246;21.054;2023-03-29T06:27:35;9.00;;;4.03;;
30896;SDS011;64229;52.246;21.054;2023-03-29T06:30:00;14.02;;;4.90;;
30896;SDS011;64229;52.246;21.054;2023-03-29T06:32:27;11.25;;;4.43;;
30896;SDS011;64229;52.246;21.054;2023-03-29T06:34:52;10.70;;;3.67;;
30896;SDS011;64229;52.246;21.054;2023-03-29T06:37:18;12.07;;;5.00;;
30896;SDS011;64229;52.246;21.054;2023-03-29T06:39:45;14.85;;;4.30;;
30896;SDS011;64229;52.246;21.054;2023-03-29T06:42:16;18.80;;;4.97;;
30896;SDS011;64229;52.246;21.054;2023-03-29T06:44:43;12.20;;;4.32;;
30896;SDS011;64229;52.246;21.054;2023-03-29T06:47:09;13.98;;;4.35;;
30896;SDS011;64229;52.246;21.054;2023-03-29T06:49:34;10.25;;;3.85;;
30896;SDS011;64229;52.246;21.054;2023-03-29T06:52:00;8.95;;;4.03;;
30896;SDS011;64229;52.246;21.054;2023-03-29T06:54:25;9.38;;;3.90;;
30896;SDS011;64229;52.246;21.054;2023-03-29T06:56:51;11.18;;;4.03;;
30896;SDS011;64229;52.246;21.054;2023-03-29T06:59:16;11.60;;;3.63;;
30896;SDS011;64229;52.246;21.054;2023-03-29T07:01:42;13.52;;;4.05;;
30896;SDS011;64229;52.246;21.054;2023-03-29T07:04:08;9.27;;;4.10;;
30896;SDS011;64229;52.246;21.054;2023-03-29T07:06:35;9.93;;;4.10;;
30896;SDS011;64229;52.246;21.054;2023-03-29T07:09:02;11.27;;;3.90;;
30896;SDS011;64229;52.246;21.054;2023-03-29T07:11:31;12.18;;;3.60;;
30896;SDS011;64229;52.246;21.054;2023-03-29T07:13:59;9.70;;;3.60;;
30896;SDS011;64229;52.246;21.054;2023-03-29T07:16:24;17.00;;;4.13;;
30896;SDS011;64229;52.246;21.054;2023-03-29T07:18:51;9.18;;;3.80;;
30896;SDS011;64229;52.246;21.054;2023-03-29T07:21:16;8.20;;;3.75;;
30896;SDS011;64229;52.246;21.054;2023-03-29T07:23:42;11.02;;;4.03;;
30896;SDS011;64229;52.246;21.054;2023-03-29T07:26:07;8.25;;;3.58;;
30896;SDS011;64229;52.246;21.054;2023-03-29T07:28:34;9.23;;;2.92;;
30896;SDS011;64229;52.246;21.054;2023-03-29T07:31:07;8.30;;;3.25;;
30896;SDS011;64229;52.246;21.054;2023-03-29T07:33:35;8.30;;;3.83;;
30896;SDS011;64229;52.246;21.054;2023-03-29T07:36:02;12.68;;;4.20;;
30896;SDS011;64229;52.246;21.054;2023-03-29T07:38:29;10.30;;;3.78;;
30896;SDS011;64229;52.246;21.054;2023-03-29T07:40:56;10.80;;;3.67;;
30896;SDS011;64229;52.246;21.054;2023-03-29T07:43:22;12.23;;;3.67;;
30896;SDS011;64229;52.246;21.054;2023-03-29T07:45:48;13.40;;;4.13;;
30896;SDS011;64229;52.246;21.054;2023-03-29T07:48:16;13.10;;;3.55;;
30896;SDS011;64229;52.246;21.054;2023-03-29T07:50:44;8.35;;;3.30;;
30896;SDS011;64229;52.246;21.054;2023-03-29T07:53:10;13.73;;;3.05;;
30896;SDS011;64229;52.246;21.054;2023-03-29T07:55:35;7.28;;;2.83;;
30896;SDS011;64229;52.246;21.054;2023-03-29T07:58:01;8.43;;;3.58;;
30896;SDS011;64229;52.246;21.054;2023-03-29T08:00:28;9.77;;;3.50;;
30896;SDS011;64229;52.246;21.054;2023-03-29T08:02:53;9.15;;;3.65;;
30896;SDS011;64229;52.246;21.054;2023-03-29T08:05:20;13.57;;;4.22;;
30896;SDS011;64229;52.246;21.054;2023-03-29T08:07:47;8.35;;;3.75;;
30896;SDS011;64229;52.246;21.054;2023-03-29T08:10:14;10.25;;;4.07;;
30896;SDS011;64229;52.246;21.054;2023-03-29T08:12:44;10.80;;;4.43;;
30896;SDS011;64229;52.246;21.054;2023-03-29T08:15:10;9.13;;;4.05;;
30896;SDS011;64229;52.246;21.054;2023-03-29T08:17:37;7.60;;;3.55;;
30896;SDS011;64229;52.246;21.054;2023-03-29T08:20:04;13.75;;;4.10;;
30896;SDS011;64229;52.246;21.054;2023-03-29T08:22:31;6.28;;;3.30;;
30896;SDS011;64229;52.246;21.054;2023-03-29T08:24:57;7.55;;;3.63;;
30896;SDS011;64229;52.246;21.054;2023-03-29T08:27:23;8.50;;;3.75;;
30896;SDS011;64229;52.246;21.054;2023-03-29T08:29:48;9.32;;;4.10;;
30896;SDS011;64229;52.246;21.054;2023-03-29T08:32:15;13.65;;;3.92;;
30896;SDS011;64229;52.246;21.054;2023-03-29T08:34:40;9.25;;;3.13;;
30896;SDS011;64229;52.246;21.054;2023-03-29T08:37:05;12.23;;;3.72;;
30896;SDS011;64229;52.246;21.054;2023-03-29T08:39:32;7.80;;;3.13;;
30896;SDS011;64229;52.246;21.054;2023-03-29T08:42:06;9.95;;;3.63;;
30896;SDS011;64229;52.246;21.054;2023-03-29T08:50:05;8.73;;;2.80;;
30896;SDS011;64229;52.246;21.054;2023-03-29T08:52:35;6.15;;;2.90;;
30896;SDS011;64229;52.246;21.054;2023-03-29T08:55:06;5.13;;;2.33;;
30896;SDS011;64229;52.246;21.054;2023-03-29T08:57:42;6.45;;;2.47;;
30896;SDS011;64229;52.246;21.054;2023-03-29T09:00:13;5.57;;;2.70;;
30896;SDS011;64229;52.246;21.054;2023-03-29T09:02:45;6.47;;;2.53;;
30896;SDS011;64229;52.246;21.054;2023-03-29T09:07:44;5.13;;;2.30;;
30896;SDS011;64229;52.246;21.054;2023-03-29T09:10:11;7.15;;;2.78;;
30896;SDS011;64229;52.246;21.054;2023-03-29T09:12:43;6.03;;;2.60;;
30896;SDS011;64229;52.246;21.054;2023-03-29T09:15:23;5.65;;;2.28;;
30896;SDS011;64229;52.246;21.054;2023-03-29T09:18:18;7.45;;;2.70;;
30896;SDS011;64229;52.246;21.054;2023-03-29T09:25:59;4.72;;;2.08;;
30896;SDS011;64229;52.246;21.054;2023-03-29T09:28:43;4.78;;;2.20;;
30896;SDS011;64229;52.246;21.054;2023-03-29T09:31:29;6.47;;;2.75;;
30896;SDS011;64229;52.246;21.054;2023-03-29T09:34:03;10.38;;;2.03;;
30896;SDS011;64229;52.246;21.054;2023-03-29T09:39:02;4.07;;;1.63;;
30896;SDS011;64229;52.246;21.054;2023-03-29T09:41:38;4.25;;;1.90;;
30896;SDS011;64229;52.246;21.054;2023-03-29T09:44:08;3.33;;;1.52;;
30896;SDS011;64229;52.246;21.054;2023-03-29T09:46:41;5.63;;;1.83;;
30896;SDS011;64229;52.246;21.054;2023-03-29T09:49:10;5.40;;;1.95;;
30896;SDS011;64229;52.246;21.054;2023-03-29T09:51:41;3.10;;;1.65;;
30896;SDS011;64229;52.246;21.054;2023-03-29T09:54:09;4.03;;;2.05;;
30896;SDS011;64229;52.246;21.054;2023-03-29T09:56:36;4.45;;;2.00;;
30896;SDS011;64229;52.246;21.054;2023-03-29T09:59:01;6.03;;;2.22;;
30896;SDS011;64229;52.246;21.054;2023-03-29T10:01:34;6.65;;;1.83;;
30896;SDS011;64229;52.246;21.054;2023-03-29T10:04:04;2.90;;;1.60;;
30896;SDS011;64229;52.246;21.054;2023-03-29T10:06:31;3.58;;;1.77;;
30896;SDS011;64229;52.246;21.054;2023-03-29T10:08:58;4.20;;;1.75;;
30896;SDS011;64229;52.246;21.054;2023-03-29T10:11:31;3.92;;;1.73;;
30896;SDS011;64229;52.246;21.054;2023-03-29T10:16:37;8.20;;;1.92;;
30896;SDS011;64229;52.246;21.054;2023-03-29T10:19:15;6.93;;;2.00;;
30896;SDS011;64229;52.246;21.054;2023-03-29T10:21:41;3.92;;;1.77;;
30896;SDS011;64229;52.246;21.054;2023-03-29T10:24:07;4.00;;;2.10;;
30896;SDS011;64229;52.246;21.054;2023-03-29T10:26:34;5.47;;;2.17;;
30896;SDS011;64229;52.246;21.054;2023-03-29T10:29:03;6.85;;;1.90;;
30896;SDS011;64229;52.246;21.054;2023-03-29T10:31:31;4.82;;;1.98;;
30896;SDS011;64229;52.246;21.054;2023-03-29T10:34:00;6.00;;;2.38;;
30896;SDS011;64229;52.246;21.054;2023-03-29T10:36:28;6.55;;;2.20;;
30896;SDS011;64229;52.246;21.054;2023-03-29T10:38:55;5.85;;;1.80;;
30896;SDS011;64229;52.246;21.054;2023-03-29T10:41:23;4.82;;;2.10;;
30896;SDS011;64229;52.246;21.054;2023-03-29T10:43:51;7.00;;;2.47;;
30896;SDS011;64229;52.246;21.054;2023-03-29T10:48:50;5.93;;;1.83;;
30896;SDS011;64229;52.246;21.054;2023-03-29T10:51:20;6.43;;;2.25;;
30896;SDS011;64229;52.246;21.054;2023-03-29T10:53:46;4.25;;;2.15;;
30896;SDS011;64229;52.246;21.054;2023-03-29T10:59:00;7.07;;;2.50;;
30896;SDS011;64229;52.246;21.054;2023-03-29T11:24:46;7.10;;;2.38;;
30896;SDS011;64229;52.246;21.054;2023-03-29T11:29:55;5.07;;;2.17;;
30896;SDS011;64229;52.246;21.054;2023-03-29T11:35:54;6.82;;;2.00;;
30896;SDS011;64229;52.246;21.054;2023-03-29T11:41:33;3.75;;;2.00;;
30896;SDS011;64229;52.246;21.054;2023-03-29T11:44:21;3.70;;;2.03;;
30896;SDS011;64229;52.246;21.054;2023-03-29T11:49:33;5.55;;;2.03;;
30896;SDS011;64229;52.246;21.054;2023-03-29T11:55:02;4.53;;;2.28;;
30896;SDS011;64229;52.246;21.054;2023-03-29T12:00:19;6.32;;;2.08;;
30896;SDS011;64229;52.246;21.054;2023-03-29T12:02:59;4.45;;;1.92;;
30896;SDS011;64229;52.246;21.054;2023-03-29T12:05:31;7.57;;;2.40;;
30896;SDS011;64229;52.246;21.054;2023-03-29T12:10:52;4.82;;;2.72;;
30896;SDS011;64229;52.246;21.054;2023-03-29T12:13:37;4.25;;;1.80;;
30896;SDS011;64229;52.246;21.054;2023-03-29T12:16:26;3.22;;;2.00;;
30896;SDS011;64229;52.246;21.054;2023-03-29T12:18:57;5.70;;;2.20;;
30896;SDS011;64229;52.246;21.054;2023-03-29T12:21:27;5.80;;;2.33;;
30896;SDS011;64229;52.246;21.054;2023-03-29T12:23:54;4.13;;;2.20;;
30896;SDS011;64229;52.246;21.054;2023-03-29T12:40:07;9.60;;;2.90;;
30896;SDS011;64229;52.246;21.054;2023-03-29T12:42:47;5.65;;;2.55;;
30896;SDS011;64229;52.246;21.054;2023-03-29T12:45:20;5.60;;;2.90;;
30896;SDS011;64229;52.246;21.054;2023-03-29T12:48:30;8.02;;;2.85;;
30896;SDS011;64229;52.246;21.054;2023-03-29T12:51:03;6.45;;;2.42;;
30896;SDS011;64229;52.246;21.054;2023-03-29T12:53:35;7.13;;;2.60;;
30896;SDS011;64229;52.246;21.054;2023-03-29T12:56:09;6.82;;;2.47;;
30896;SDS011;64229;52.246;21.054;2023-03-29T13:03:50;4.65;;;2.63;;
30896;SDS011;64229;52.246;21.054;2023-03-29T13:09:25;6.22;;;2.67;;
30896;SDS011;64229;52.246;21.054;2023-03-29T13:12:05;5.43;;;2.65;;
30896;SDS011;64229;52.246;21.054;2023-03-29T13:14:33;7.80;;;3.33;;
30896;SDS011;64229;52.246;21.054;2023-03-29T13:17:05;6.40;;;2.88;;
30896;SDS011;64229;52.246;21.054;2023-03-29T13:19:43;8.25;;;2.80;;
30896;SDS011;64229;52.246;21.054;2023-03-29T13:38:29;4.50;;;1.50;;
30896;SDS011;64229;52.246;21.054;2023-03-29T13:43:35;6.03;;;2.28;;
30896;SDS011;64229;52.246;21.054;2023-03-29T13:46:34;4.07;;;2.00;;
30896;SDS011;64229;52.246;21.054;2023-03-29T13:49:19;5.95;;;2.00;;
30896;SDS011;64229;52.246;21.054;2023-03-29T13:54:34;3.58;;;1.63;;
30896;SDS011;64229;52.246;21.054;2023-03-29T14:02:30;3.70;;;1.90;;
30896;SDS011;64229;52.246;21.054;2023-03-29T14:04:57;4.70;;;1.70;;
30896;SDS011;64229;52.246;21.054;2023-03-29T14:07:25;4.68;;;1.70;;
30896;SDS011;64229;52.246;21.054;2023-03-29T14:09:53;4.45;;;1.83;;
30896;SDS011;64229;52.246;21.054;2023-03-29T14:12:20;4.97;;;2.10;;
30896;SDS011;64229;52.246;21.054;2023-03-29T14:14:46;6.90;;;2.15;;
30896;SDS011;64229;52.246;21.054;2023-03-29T14:17:17;4.53;;;1.70;;
30896;SDS011;64229;52.246;21.054;2023-03-29T14:19:46;4.05;;;1.60;;
30896;SDS011;64229;52.246;21.054;2023-03-29T14:22:16;4.60;;;1.70;;
30896;SDS011;64229;52.246;21.054;2023-03-29T14:24:53;3.85;;;1.60;;
30896;SDS011;64229;52.246;21.054;2023-03-29T14:27:22;3.08;;;1.63;;
30896;SDS011;64229;52.246;21.054;2023-03-29T14:29:48;5.35;;;2.08;;
30896;SDS011;64229;52.246;21.054;2023-03-29T14:32:16;4.97;;;1.77;;
30896;SDS011;64229;52.246;21.054;2023-03-29T14:34:45;4.53;;;1.70;;
30896;SDS011;64229;52.246;21.054;2023-03-29T14:37:12;4.82;;;1.65;;
30896;SDS011;64229;52.246;21.054;2023-03-29T14:39:42;2.90;;;1.60;;
30896;SDS011;64229;52.246;21.054;2023-03-29T14:42:13;4.22;;;1.73;;
30896;SDS011;64229;52.246;21.054;2023-03-29T14:44:41;3.38;;;1.70;;
30896;SDS011;64229;52.246;21.054;2023-03-29T14:47:07;4.97;;;1.95;;
30896;SDS011;64229;52.246;21.054;2023-03-29T14:49:40;3.85;;;1.55;;
30896;SDS011;64229;52.246;21.054;2023-03-29T14:52:05;2.55;;;1.40;;
30896;SDS011;64229;52.246;21.054;2023-03-29T14:54:31;4.68;;;1.83;;
30896;SDS011;64229;52.246;21.054;2023-03-29T14:56:58;4.35;;;1.90;;
30896;SDS011;64229;52.246;21.054;2023-03-29T15:01:51;4.80;;;1.95;;
30896;SDS011;64229;52.246;21.054;2023-03-29T15:04:17;5.07;;;2.03;;
30896;SDS011;64229;52.246;21.054;2023-03-29T15:06:42;3.35;;;1.60;;
30896;SDS011;64229;52.246;21.054;2023-03-29T15:09:23;3.28;;;1.60;;
30896;SDS011;64229;52.246;21.054;2023-03-29T15:11:54;4.55;;;2.00;;
30896;SDS011;64229;52.246;21.054;2023-03-29T15:14:21;4.47;;;2.00;;
30896;SDS011;64229;52.246;21.054;2023-03-29T15:16:49;5.07;;;1.98;;
30896;SDS011;64229;52.246;21.054;2023-03-29T15:19:18;5.38;;;2.45;;
30896;SDS011;64229;52.246;21.054;2023-03-29T15:21:46;5.10;;;2.33;;
30896;SDS011;64229;52.246;21.054;2023-03-29T15:24:18;7.35;;;2.15;;
30896;SDS011;64229;52.246;21.054;2023-03-29T15:26:55;6.53;;;1.90;;
30896;SDS011;64229;52.246;21.054;2023-03-29T15:29:22;4.40;;;2.20;;
30896;SDS011;64229;52.246;21.054;2023-03-29T15:31:55;5.28;;;2.00;;
30896;SDS011;64229;52.246;21.054;2023-03-29T15:34:24;4.30;;;1.80;;
30896;SDS011;64229;52.246;21.054;2023-03-29T15:36:50;3.75;;;2.05;;
30896;SDS011;64229;52.246;21.054;2023-03-29T15:39:16;5.47;;;1.95;;
30896;SDS011;64229;52.246;21.054;2023-03-29T15:41:44;7.05;;;2.45;;
30896;SDS011;64229;52.246;21.054;2023-03-29T15:44:13;5.60;;;2.33;;
30896;SDS011;64229;52.246;21.054;2023-03-29T15:46:41;6.47;;;2.25;;
30896;SDS011;64229;52.246;21.054;2023-03-29T15:49:10;5.68;;;2.20;;
30896;SDS011;64229;52.246;21.054;2023-03-29T15:51:36;5.80;;;2.70;;
30896;SDS011;64229;52.246;21.054;2023-03-29T15:54:02;6.68;;;2.22;;
30896;SDS011;64229;52.246;21.054;2023-03-29T15:56:28;7.45;;;2.65;;
30896;SDS011;64229;52.246;21.054;2023-03-29T15:58:54;5.85;;;2.42;;
30896;SDS011;64229;52.246;21.054;2023-03-29T16:01:29;6.07;;;2.67;;
30896;SDS011;64229;52.246;21.054;2023-03-29T16:06:31;6.47;;;2.50;;
30896;SDS011;64229;52.246;21.054;2023-03-29T16:08:58;7.28;;;2.78;;
30896;SDS011;64229;52.246;21.054;2023-03-29T16:11:24;5.22;;;2.15;;
30896;SDS011;64229;52.246;21.054;2023-03-29T16:13:53;7.78;;;2.60;;
30896;SDS011;64229;52.246;21.054;2023-03-29T16:16:19;9.40;;;2.45;;
30896;SDS011;64229;52.246;21.054;2023-03-29T16:18:45;6.80;;;2.78;;
30896;SDS011;64229;52.246;21.054;2023-03-29T16:21:15;6.75;;;2.30;;
30896;SDS011;64229;52.246;21.054;2023-03-29T16:23:43;6.25;;;2.83;;
30896;SDS011;64229;52.246;21.054;2023-03-29T16:26:13;4.32;;;2.08;;
30896;SDS011;64229;52.246;21.054;2023-03-29T16:28:40;4.65;;;1.95;;
30896;SDS011;64229;52.246;21.054;2023-03-29T16:31:07;5.90;;;2.60;;
30896;SDS011;64229;52.246;21.054;2023-03-29T16:33:35;7.03;;;2.85;;
30896;SDS011;64229;52.246;21.054;2023-03-29T16:36:01;5.55;;;2.60;;
30896;SDS011;64229;52.246;21.054;2023-03-29T16:38:27;6.03;;;2.63;;
30896;SDS011;64229;52.246;21.054;2023-03-29T16:40:53;9.25;;;2.90;;
30896;SDS011;64229;52.246;21.054;2023-03-29T16:43:18;9.70;;;2.70;;
30896;SDS011;64229;52.246;21.054;2023-03-29T16:45:44;6.65;;;2.80;;
30896;SDS011;64229;52.246;21.054;2023-03-29T16:48:13;6.20;;;2.63;;
30896;SDS011;64229;52.246;21.054;2023-03-29T16:50:41;7.13;;;2.83;;
30896;SDS011;64229;52.246;21.054;2023-03-29T16:53:07;5.88;;;2.75;;